createdAt,value
2022-12-29T00:01:54.981Z,2.00
2022-12-29T00:07:02.177Z,1.90
2022-12-29T00:12:09.009Z,1.90
2022-12-29T00:17:16.323Z,1.90
2022-12-29T00:22:42.617Z,2.20
2022-12-29T00:28:07.764Z,2.00
2022-12-29T00:33:35.954Z,1.80
2022-12-29T00:39:04.037Z,2.00
2022-12-29T00:44:13.254Z,2.40
2022-12-29T00:49:32.604Z,2.50
2022-12-29T00:54:42.343Z,2.40
2022-12-29T00:59:49.401Z,2.40
2022-12-29T01:04:56.591Z,2.50
2022-12-29T01:10:12.952Z,2.30
2022-12-29T01:15:20.344Z,2.20
2022-12-29T01:20:29.194Z,2.20
2022-12-29T01:25:36.277Z,2.20
2022-12-29T01:30:43.214Z,2.30
2022-12-29T01:35:50.160Z,2.30
2022-12-29T01:40:56.988Z,2.50
2022-12-29T01:46:04.283Z,2.80
2022-12-29T01:51:11.371Z,2.90
2022-12-29T01:56:21.962Z,2.90
2022-12-29T02:01:29.076Z,3.00
2022-12-29T02:06:49.727Z,3.30
2022-12-29T02:11:57.500Z,3.20
2022-12-29T02:17:23.797Z,3.10
2022-12-29T02:23:24.393Z,3.10
2022-12-29T02:29:03.988Z,3.30
2022-12-29T02:34:39.220Z,3.30
2022-12-29T02:40:11.591Z,3.30
2022-12-29T02:45:46.623Z,3.30
2022-12-29T02:51:30.097Z,3.30
2022-12-29T02:56:36.817Z,3.50
2022-12-29T03:02:22.036Z,3.40
2022-12-29T03:07:33.511Z,3.30
2022-12-29T03:13:21.110Z,3.10
2022-12-29T03:18:32.279Z,3.20
2022-12-29T03:23:40.439Z,3.20
2022-12-29T03:28:53.414Z,2.90
2022-12-29T03:34:00.923Z,3.00
2022-12-29T03:39:14.240Z,3.00
2022-12-29T03:44:21.013Z,3.10
2022-12-29T03:49:27.703Z,3.10
2022-12-29T03:54:34.709Z,3.30
2022-12-29T03:59:41.364Z,3.20
2022-12-29T04:04:48.052Z,3.20
2022-12-29T04:09:55.525Z,3.20
2022-12-29T04:15:02.202Z,3.30
2022-12-29T04:20:27.383Z,3.20
2022-12-29T04:25:35.161Z,3.20
2022-12-29T04:30:41.841Z,3.20
2022-12-29T04:35:49.022Z,3.20
2022-12-29T04:40:55.798Z,3.10
2022-12-29T04:46:02.589Z,3.10
2022-12-29T04:51:09.347Z,3.20
2022-12-29T04:56:16.028Z,3.30
2022-12-29T05:01:22.749Z,3.20
2022-12-29T05:06:29.465Z,3.10
2022-12-29T05:11:36.112Z,3.00
2022-12-29T05:16:42.896Z,3.10
2022-12-29T05:21:49.557Z,3.10
2022-12-29T05:26:56.252Z,3.00
2022-12-29T05:32:02.968Z,3.00
2022-12-29T05:37:09.715Z,3.20
2022-12-29T05:42:16.400Z,3.10
2022-12-29T05:47:23.979Z,3.10
2022-12-29T05:52:30.681Z,3.00
2022-12-29T05:57:37.327Z,2.90
2022-12-29T06:02:44.188Z,3.10
2022-12-29T06:07:51.020Z,3.00
2022-12-29T06:12:58.009Z,3.10
2022-12-29T06:18:04.896Z,3.30
2022-12-29T06:23:13.216Z,3.20
2022-12-29T06:28:20.920Z,3.10
2022-12-29T06:33:27.585Z,3.00
2022-12-29T06:38:34.409Z,3.10
2022-12-29T06:43:41.118Z,3.30
2022-12-29T06:48:47.776Z,3.20
2022-12-29T06:53:54.442Z,3.20
2022-12-29T06:59:04.507Z,3.20
2022-12-29T07:04:11.179Z,3.20
2022-12-29T07:09:17.978Z,3.30
2022-12-29T07:14:24.678Z,3.20
2022-12-29T07:19:31.369Z,3.30
2022-12-29T07:24:38.043Z,3.50
2022-12-29T07:29:44.771Z,3.40
2022-12-29T07:34:51.451Z,3.40
2022-12-29T07:39:58.477Z,3.50
2022-12-29T07:45:05.591Z,3.30
2022-12-29T07:50:13.127Z,3.50
2022-12-29T07:55:19.983Z,3.50
2022-12-29T08:00:26.771Z,3.30
2022-12-29T08:05:35.271Z,3.70
2022-12-29T08:10:41.997Z,3.70
2022-12-29T08:15:48.755Z,3.80
2022-12-29T08:20:56.033Z,3.80
2022-12-29T08:26:05.756Z,4.00
2022-12-29T08:31:12.986Z,4.20
2022-12-29T08:36:19.673Z,4.20
2022-12-29T08:41:26.788Z,4.30
2022-12-29T08:46:33.598Z,4.40
2022-12-29T08:51:40.315Z,4.40
2022-12-29T08:56:47.004Z,4.40
2022-12-29T09:01:53.782Z,4.50
2022-12-29T09:07:00.576Z,4.80
2022-12-29T09:12:07.260Z,4.70
2022-12-29T09:17:31.977Z,4.80
2022-12-29T09:22:39.555Z,4.90
2022-12-29T09:27:46.290Z,4.90
2022-12-29T09:32:55.380Z,5.10
2022-12-29T09:38:01.496Z,5.20
2022-12-29T09:43:29.555Z,5.20
2022-12-29T09:48:40.266Z,5.20
2022-12-29T09:53:51.437Z,5.30
2022-12-29T09:59:08.657Z,5.50
2022-12-29T10:04:15.408Z,5.50
2022-12-29T10:09:55.017Z,5.60
2022-12-29T10:15:42.316Z,5.80
2022-12-29T10:21:32.542Z,5.80
2022-12-29T10:26:45.612Z,6.00
2022-12-29T10:32:02.237Z,5.90
2022-12-29T10:37:38.593Z,5.90
2022-12-29T10:42:48.928Z,6.10
2022-12-29T10:48:08.990Z,6.00
2022-12-29T10:53:20.179Z,6.30
2022-12-29T10:58:28.801Z,6.80
2022-12-29T11:03:48.912Z,6.70
2022-12-29T11:09:20.579Z,6.50
2022-12-29T11:14:33.190Z,6.50
2022-12-29T11:19:41.289Z,6.90
2022-12-29T11:24:49.641Z,6.80
2022-12-29T11:29:57.125Z,6.70
2022-12-29T11:35:04.277Z,6.80
2022-12-29T11:40:23.133Z,6.70
2022-12-29T11:45:36.483Z,6.80
2022-12-29T11:50:45.344Z,6.70
2022-12-29T11:55:58.819Z,7.00
2022-12-29T12:01:39.095Z,7.00
2022-12-29T12:07:05.617Z,7.10
2022-12-29T12:12:27.998Z,7.00
2022-12-29T12:17:54.440Z,6.80
2022-12-29T12:23:20.855Z,7.00
2022-12-29T12:28:36.918Z,7.20
2022-12-29T12:33:47.335Z,6.80
2022-12-29T12:39:22.390Z,7.20
2022-12-29T12:44:50.022Z,7.30
2022-12-29T12:50:41.472Z,7.40
2022-12-29T12:56:13.158Z,7.30
2022-12-29T13:01:41.636Z,7.30
2022-12-29T13:06:55.741Z,7.30
2022-12-29T13:12:28.959Z,7.30
2022-12-29T13:17:51.963Z,7.10
2022-12-29T13:23:19.654Z,7.10
2022-12-29T13:29:03.817Z,7.10
2022-12-29T13:34:20.501Z,7.30
2022-12-29T13:39:34.514Z,7.20
2022-12-29T13:44:45.589Z,7.00
2022-12-29T13:49:53.164Z,7.20
2022-12-29T13:55:09.821Z,7.10
2022-12-29T14:00:24.471Z,7.20
2022-12-29T14:05:33.647Z,7.40
2022-12-29T14:10:53.580Z,7.20
2022-12-29T14:16:02.941Z,7.50
2022-12-29T14:21:19.636Z,7.20
2022-12-29T14:26:38.067Z,7.00
2022-12-29T14:31:44.891Z,7.00
2022-12-29T14:36:59.860Z,7.10
2022-12-29T14:42:15.107Z,6.90
2022-12-29T14:47:32.067Z,7.10
2022-12-29T14:52:56.638Z,6.80
2022-12-29T14:58:11.985Z,6.90
2022-12-29T15:03:35.822Z,6.90
2022-12-29T15:08:49.401Z,6.70
2022-12-29T15:13:56.077Z,6.60
2022-12-29T15:19:03.302Z,6.30
2022-12-29T15:24:11.669Z,6.30
2022-12-29T15:29:42.378Z,6.20
2022-12-29T15:34:52.991Z,6.20
2022-12-29T15:40:01.522Z,6.10
2022-12-29T15:45:13.288Z,5.90
2022-12-29T15:50:27.289Z,5.70
2022-12-29T15:55:40.689Z,5.80
2022-12-29T16:00:51.259Z,5.50
2022-12-29T16:06:02.461Z,5.40
2022-12-29T16:11:31.715Z,5.50
2022-12-29T16:16:44.416Z,5.30
2022-12-29T16:21:51.639Z,5.10
2022-12-29T16:27:11.381Z,5.20
2022-12-29T16:32:33.386Z,5.50
2022-12-29T16:37:40.881Z,5.50
2022-12-29T16:42:52.198Z,5.50
2022-12-29T16:48:11.795Z,5.40
2022-12-29T16:53:34.932Z,5.50
2022-12-29T16:58:46.442Z,5.60
2022-12-29T17:04:03.279Z,5.50
2022-12-29T17:09:28.641Z,5.40
2022-12-29T17:14:57.669Z,5.60
2022-12-29T17:20:26.945Z,5.30
2022-12-29T17:25:38.369Z,5.40
2022-12-29T17:30:45.249Z,5.40
2022-12-29T17:35:55.653Z,5.00
2022-12-29T17:41:01.737Z,5.10
2022-12-29T17:46:09.869Z,5.00
2022-12-29T17:51:16.640Z,5.00
2022-12-29T17:56:23.318Z,4.80
2022-12-29T18:01:36.161Z,4.80
2022-12-29T18:06:40.498Z,5.00
2022-12-29T18:11:47.840Z,5.30
2022-12-29T18:16:54.658Z,5.20
2022-12-29T18:22:02.324Z,5.20
2022-12-29T18:27:15.967Z,5.20
2022-12-29T18:32:23.071Z,5.10
2022-12-29T18:37:29.762Z,5.00
2022-12-29T18:42:36.933Z,5.10
2022-12-29T18:47:43.728Z,5.00
2022-12-29T18:52:50.552Z,4.90
2022-12-29T18:57:57.517Z,4.80
2022-12-29T19:03:04.469Z,4.80
2022-12-29T19:08:12.867Z,5.00
2022-12-29T19:13:24.268Z,5.10
2022-12-29T19:18:53.239Z,5.10
2022-12-29T19:23:39.845Z,5.10
2022-12-29T19:28:46.739Z,5.10
2022-12-29T19:33:54.096Z,5.40
2022-12-29T19:39:01.336Z,5.00
2022-12-29T19:44:09.310Z,5.10
2022-12-29T19:49:16.667Z,5.10
2022-12-29T19:54:23.375Z,5.20
2022-12-29T19:59:31.026Z,4.90
2022-12-29T20:04:37.780Z,4.90
2022-12-29T20:09:44.789Z,4.80
2022-12-29T20:14:52.240Z,4.80
2022-12-29T20:19:59.051Z,4.70
2022-12-29T20:25:43.061Z,4.70
2022-12-29T20:30:14.833Z,4.80
2022-12-29T20:35:22.110Z,4.90
2022-12-29T20:40:29.404Z,4.80
2022-12-29T20:45:37.236Z,5.10
2022-12-29T20:50:44.149Z,5.10
2022-12-29T20:55:51.473Z,5.30
2022-12-29T21:01:01.613Z,5.40
2022-12-29T21:06:11.085Z,5.40
2022-12-29T21:11:18.816Z,5.60
2022-12-29T21:16:25.731Z,5.50
2022-12-29T21:21:32.607Z,5.50
2022-12-29T21:26:39.395Z,5.50
2022-12-29T21:31:46.320Z,5.30
2022-12-29T21:36:53.154Z,5.50
2022-12-29T21:42:00.763Z,5.40
2022-12-29T21:47:07.547Z,5.70
2022-12-29T21:52:14.594Z,5.70
2022-12-29T21:57:39.485Z,5.60
2022-12-29T22:03:04.033Z,5.50
2022-12-29T22:08:28.641Z,5.60
2022-12-29T22:13:37.440Z,5.70
2022-12-29T22:18:44.270Z,5.70
2022-12-29T22:23:50.895Z,5.90
2022-12-29T22:28:57.791Z,6.00
2022-12-29T22:34:06.284Z,5.80
2022-12-29T22:39:13.020Z,5.70
2022-12-29T22:44:19.797Z,5.60
2022-12-29T22:49:30.614Z,5.60
2022-12-29T22:54:37.717Z,5.70
2022-12-29T22:59:44.504Z,6.00
2022-12-29T23:05:06.748Z,5.80
2022-12-29T23:09:59.797Z,6.00
2022-12-29T23:15:07.270Z,6.00
2022-12-29T23:20:15.541Z,5.70
2022-12-29T23:25:22.405Z,5.70
2022-12-29T23:30:29.359Z,5.60
2022-12-29T23:35:36.057Z,5.50
2022-12-29T23:40:43.616Z,5.50
2022-12-29T23:45:51.385Z,5.70
2022-12-29T23:50:58.570Z,5.90
2022-12-29T23:56:06.605Z,5.90
